createdAt,value
2022-08-23T00:00:16.292Z,0.00
2022-08-23T00:01:16.113Z,0.00
2022-08-23T00:02:23.862Z,0.00
2022-08-23T00:03:17.125Z,0.00
2022-08-23T00:04:16.084Z,0.00
2022-08-23T00:05:16.064Z,0.00
2022-08-23T00:06:16.065Z,0.00
2022-08-23T00:07:16.046Z,0.00
2022-08-23T00:08:16.044Z,0.00
2022-08-23T00:09:16.014Z,0.00
2022-08-23T00:10:16.031Z,0.00
2022-08-23T00:11:16.362Z,0.00
2022-08-23T00:12:16.003Z,0.00
2022-08-23T00:13:15.975Z,0.00
2022-08-23T00:14:15.975Z,0.00
2022-08-23T00:15:15.944Z,0.00
2022-08-23T00:16:15.946Z,0.00
2022-08-23T00:17:30.981Z,0.00
2022-08-23T00:18:16.932Z,0.00
2022-08-23T00:19:15.905Z,0.00
2022-08-23T00:20:15.914Z,0.00
2022-08-23T00:21:15.905Z,0.00
2022-08-23T00:22:15.884Z,0.00
2022-08-23T00:23:15.864Z,0.00
2022-08-23T00:24:15.884Z,0.00
2022-08-23T00:25:15.834Z,0.00
2022-08-23T00:26:15.833Z,0.00
2022-08-23T00:27:15.814Z,0.00
2022-08-23T00:28:15.817Z,0.00
2022-08-23T00:29:15.786Z,0.00
2022-08-23T00:30:15.797Z,0.00
2022-08-23T00:31:15.757Z,0.00
2022-08-23T00:32:15.774Z,0.00
2022-08-23T00:33:15.793Z,0.00
2022-08-23T00:34:15.745Z,0.00
2022-08-23T00:35:26.284Z,0.00
2022-08-23T00:36:16.716Z,0.00
2022-08-23T00:37:15.698Z,0.00
2022-08-23T00:38:34.196Z,0.00
2022-08-23T00:39:16.666Z,0.00
2022-08-23T00:40:15.726Z,0.00
2022-08-23T00:41:15.646Z,0.00
2022-08-23T00:42:15.646Z,0.00
2022-08-23T00:43:15.617Z,0.00
2022-08-23T00:44:15.628Z,0.00
2022-08-23T00:45:15.596Z,0.00
2022-08-23T00:46:15.605Z,0.00
2022-08-23T00:47:15.577Z,0.00
2022-08-23T00:48:15.585Z,0.00
2022-08-23T00:49:15.557Z,0.00
2022-08-23T00:50:19.247Z,0.00
2022-08-23T00:51:16.551Z,0.00
2022-08-23T00:52:15.539Z,0.00
2022-08-23T00:53:15.549Z,0.00
2022-08-23T00:54:15.507Z,0.00
2022-08-23T00:55:15.488Z,0.00
2022-08-23T00:56:15.490Z,0.00
2022-08-23T00:57:15.467Z,0.00
2022-08-23T00:58:15.494Z,0.00
2022-08-23T00:59:15.447Z,0.00
2022-08-23T01:00:15.447Z,0.00
2022-08-23T01:01:15.564Z,0.00
2022-08-23T01:02:15.417Z,0.00
2022-08-23T01:03:15.792Z,0.00
2022-08-23T01:04:15.396Z,0.00
2022-08-23T01:05:15.370Z,0.00
2022-08-23T01:06:15.377Z,0.00
2022-08-23T01:07:15.357Z,0.00
2022-08-23T01:08:15.347Z,0.00
2022-08-23T01:09:15.331Z,0.00
2022-08-23T01:10:19.985Z,0.00
2022-08-23T01:11:16.308Z,0.00
2022-08-23T01:12:15.309Z,0.00
2022-08-23T01:13:15.289Z,0.00
2022-08-23T01:14:15.288Z,0.00
2022-08-23T01:15:15.257Z,0.00
2022-08-23T01:16:15.265Z,0.00
2022-08-23T01:17:15.239Z,0.00
2022-08-23T01:18:15.247Z,0.00
2022-08-23T01:19:15.208Z,0.00
2022-08-23T01:20:15.213Z,0.00
2022-08-23T01:21:15.189Z,0.00
2022-08-23T01:22:15.218Z,0.00
2022-08-23T01:23:15.179Z,0.00
2022-08-23T01:24:41.154Z,0.00
2022-08-23T01:25:16.148Z,0.00
2022-08-23T01:26:15.148Z,0.00
2022-08-23T01:27:16.129Z,0.00
2022-08-23T01:28:15.139Z,0.00
2022-08-23T01:29:15.098Z,0.00
2022-08-23T01:30:15.109Z,0.00
2022-08-23T01:31:15.079Z,0.00
2022-08-23T01:32:15.087Z,0.00
2022-08-23T01:33:15.097Z,0.00
2022-08-23T01:34:15.280Z,0.00
2022-08-23T01:35:15.053Z,0.00
2022-08-23T01:36:15.019Z,0.00
2022-08-23T01:37:15.032Z,0.00
2022-08-23T01:38:15.017Z,0.00
2022-08-23T01:39:15.002Z,0.00
2022-08-23T01:40:15.026Z,0.00
2022-08-23T01:41:14.979Z,0.00
2022-08-23T01:42:14.959Z,0.00
2022-08-23T01:43:15.039Z,0.00
2022-08-23T01:44:14.941Z,0.00
2022-08-23T01:45:14.940Z,0.00
2022-08-23T01:46:14.909Z,0.00
2022-08-23T01:47:14.920Z,0.00
2022-08-23T01:48:14.900Z,0.00
2022-08-23T01:49:14.898Z,0.00
2022-08-23T01:50:14.878Z,0.00
2022-08-23T01:51:14.871Z,0.00
2022-08-23T01:52:14.840Z,0.00
2022-08-23T01:53:14.849Z,0.00
2022-08-23T01:54:14.819Z,0.00
2022-08-23T01:55:14.829Z,0.00
2022-08-23T01:56:14.804Z,0.00
2022-08-23T01:57:14.800Z,0.00
2022-08-23T01:58:14.773Z,0.00
2022-08-23T01:59:14.782Z,0.00
2022-08-23T02:00:14.752Z,0.00
2022-08-23T02:01:14.798Z,0.00
2022-08-23T02:02:14.741Z,0.00
2022-08-23T02:03:14.732Z,0.00
2022-08-23T02:04:14.712Z,0.00
2022-08-23T02:05:14.709Z,0.00
2022-08-23T02:06:14.688Z,0.00
2022-08-23T02:07:14.718Z,0.00
2022-08-23T02:08:15.531Z,0.00
2022-08-23T02:09:17.491Z,0.00
2022-08-23T02:10:14.640Z,0.00
2022-08-23T02:11:14.640Z,0.00
2022-08-23T02:12:14.620Z,0.00
2022-08-23T02:13:14.642Z,0.00
2022-08-23T02:14:14.604Z,0.00
2022-08-23T02:15:14.614Z,0.00
2022-08-23T02:16:14.957Z,0.00
2022-08-23T02:17:14.571Z,0.00
2022-08-23T02:18:14.551Z,0.00
2022-08-23T02:19:14.548Z,0.00
2022-08-23T02:20:14.531Z,0.00
2022-08-23T02:21:14.532Z,0.00
2022-08-23T02:22:14.512Z,0.00
2022-08-23T02:23:14.510Z,0.00
2022-08-23T02:24:14.480Z,0.00
2022-08-23T02:25:14.491Z,0.00
2022-08-23T02:26:14.610Z,0.00
2022-08-23T02:27:14.472Z,0.00
2022-08-23T02:28:14.441Z,0.00
2022-08-23T02:29:14.442Z,0.00
2022-08-23T02:30:14.413Z,0.00
2022-08-23T02:31:14.542Z,0.00
2022-08-23T02:32:14.392Z,0.00
2022-08-23T02:33:14.400Z,0.00
2022-08-23T02:34:14.381Z,0.00
2022-08-23T02:35:14.372Z,0.00
2022-08-23T02:36:14.408Z,0.00
2022-08-23T02:37:14.366Z,0.00
2022-08-23T02:38:14.382Z,0.00
2022-08-23T02:39:14.352Z,0.00
2022-08-23T02:40:14.336Z,0.00
2022-08-23T02:41:14.302Z,0.00
2022-08-23T02:42:14.280Z,0.00
2022-08-23T02:43:14.281Z,0.00
2022-08-23T02:44:14.252Z,0.00
2022-08-23T02:45:14.283Z,0.00
2022-08-23T02:46:14.233Z,0.00
2022-08-23T02:47:14.232Z,0.00
2022-08-23T02:48:15.024Z,0.00
2022-08-23T02:49:14.213Z,0.00
2022-08-23T02:50:14.202Z,0.00
2022-08-23T02:51:14.190Z,0.00
2022-08-23T02:52:14.177Z,0.00
2022-08-23T02:53:14.867Z,0.00
2022-08-23T02:54:14.143Z,0.00
2022-08-23T02:55:14.702Z,0.00
2022-08-23T02:56:21.267Z,0.00
2022-08-23T02:57:15.122Z,0.00
2022-08-23T02:58:14.102Z,0.00
2022-08-23T02:59:14.983Z,0.00
2022-08-23T03:00:14.083Z,0.00
2022-08-23T03:01:14.084Z,0.00
2022-08-23T03:02:14.071Z,0.00
2022-08-23T03:03:14.053Z,0.00
2022-08-23T03:04:14.352Z,0.00
2022-08-23T03:05:14.262Z,0.00
2022-08-23T03:06:24.783Z,0.00
2022-08-23T03:07:15.002Z,0.00
2022-08-23T03:08:13.991Z,0.00
2022-08-23T03:09:14.063Z,0.00
2022-08-23T03:10:14.083Z,0.00
2022-08-23T03:11:14.102Z,0.00
2022-08-23T03:12:13.936Z,0.00
2022-08-23T03:13:13.943Z,0.00
2022-08-23T03:14:13.913Z,0.00
2022-08-23T03:15:14.735Z,0.00
2022-08-23T03:16:14.633Z,0.00
2022-08-23T03:17:14.608Z,0.00
2022-08-23T03:18:13.883Z,0.00
2022-08-23T03:19:13.878Z,0.00
2022-08-23T03:20:13.870Z,0.00
2022-08-23T03:21:14.665Z,0.00
2022-08-23T03:22:13.826Z,0.00
2022-08-23T03:23:13.833Z,0.00
2022-08-23T03:24:13.793Z,0.00
2022-08-23T03:25:13.805Z,0.00
2022-08-23T03:26:13.783Z,0.00
2022-08-23T03:27:13.781Z,0.00
2022-08-23T03:28:13.753Z,0.00
2022-08-23T03:29:13.753Z,0.00
2022-08-23T03:30:19.235Z,0.00
2022-08-23T03:31:14.738Z,0.00
2022-08-23T03:32:15.460Z,0.00
2022-08-23T03:33:13.712Z,0.00
2022-08-23T03:34:13.683Z,0.00
2022-08-23T03:35:15.183Z,0.00
2022-08-23T03:36:14.504Z,0.00
2022-08-23T03:37:14.414Z,0.00
2022-08-23T03:38:13.763Z,0.00
2022-08-23T03:39:13.633Z,0.00
2022-08-23T03:40:13.679Z,0.00
2022-08-23T03:41:13.622Z,0.00
2022-08-23T03:42:14.004Z,0.00
2022-08-23T03:43:14.415Z,0.00
2022-08-23T03:44:14.114Z,0.00
2022-08-23T03:45:13.564Z,0.00
2022-08-23T03:46:13.626Z,0.00
2022-08-23T03:47:13.545Z,0.00
2022-08-23T03:48:14.375Z,0.00
2022-08-23T03:49:13.743Z,0.00
2022-08-23T03:50:13.744Z,0.00
2022-08-23T03:51:13.495Z,0.00
2022-08-23T03:52:14.260Z,0.00
2022-08-23T03:53:13.502Z,0.00
2022-08-23T03:54:14.312Z,0.00
2022-08-23T03:55:13.469Z,0.00
2022-08-23T03:56:14.375Z,0.00
2022-08-23T03:57:14.313Z,0.00
2022-08-23T03:58:13.427Z,0.00
2022-08-23T03:59:14.353Z,0.00
2022-08-23T04:00:13.395Z,0.00
2022-08-23T04:01:13.399Z,4.00
2022-08-23T04:02:13.414Z,4.00
2022-08-23T04:03:13.394Z,4.00
2022-08-23T04:04:13.372Z,4.00
2022-08-23T04:05:14.164Z,4.00
2022-08-23T04:06:14.185Z,8.00
2022-08-23T04:07:13.332Z,4.00
2022-08-23T04:08:13.304Z,8.00
2022-08-23T04:09:13.293Z,8.00
2022-08-23T04:10:13.277Z,8.00
2022-08-23T04:11:14.215Z,12.00
2022-08-23T04:12:17.459Z,12.00
2022-08-23T04:13:13.243Z,16.00
2022-08-23T04:14:13.256Z,16.00
2022-08-23T04:15:13.227Z,20.00
2022-08-23T04:16:13.615Z,24.00
2022-08-23T04:17:14.164Z,28.00
2022-08-23T04:18:13.227Z,36.00
2022-08-23T04:19:13.173Z,36.00
2022-08-23T04:20:13.345Z,44.00
2022-08-23T04:21:13.164Z,52.00
2022-08-23T04:22:13.146Z,56.00
2022-08-23T04:23:13.163Z,64.00
2022-08-23T04:24:13.097Z,72.00
2022-08-23T04:25:33.013Z,80.00
2022-08-23T04:26:14.078Z,84.00
2022-08-23T04:27:13.077Z,96.00
2022-08-23T04:28:13.090Z,100.00
2022-08-23T04:29:13.056Z,112.00
2022-08-23T04:30:14.034Z,120.00
2022-08-23T04:31:13.033Z,128.00
2022-08-23T04:32:13.005Z,136.00
2022-08-23T04:33:17.707Z,144.00
2022-08-23T04:34:12.997Z,156.00
2022-08-23T04:35:13.063Z,164.00
2022-08-23T04:36:12.961Z,176.00
2022-08-23T04:37:13.346Z,188.00
2022-08-23T04:38:24.736Z,200.00
2022-08-23T04:39:14.697Z,212.00
2022-08-23T04:40:12.998Z,224.00
2022-08-23T04:41:13.648Z,236.00
2022-08-23T04:42:15.016Z,248.00
2022-08-23T04:43:12.896Z,260.00
2022-08-23T04:44:12.885Z,272.00
2022-08-23T04:45:13.767Z,288.00
2022-08-23T04:46:12.856Z,300.00
2022-08-23T04:47:12.926Z,316.00
2022-08-23T04:48:13.126Z,328.00
2022-08-23T04:49:12.826Z,344.00
2022-08-23T04:50:12.817Z,360.00
2022-08-23T04:51:12.806Z,376.00
2022-08-23T04:52:15.118Z,392.00
2022-08-23T04:53:14.196Z,404.00
2022-08-23T04:54:13.525Z,420.00
2022-08-23T04:55:13.802Z,436.00
2022-08-23T04:56:13.275Z,448.00
2022-08-23T04:57:13.596Z,464.00
2022-08-23T04:58:12.728Z,476.00
2022-08-23T04:59:13.156Z,492.00
2022-08-23T05:00:12.696Z,504.00
2022-08-23T05:01:12.764Z,520.00
2022-08-23T05:02:13.453Z,536.00
2022-08-23T05:03:12.706Z,552.00
2022-08-23T05:04:12.638Z,564.00
2022-08-23T05:05:12.643Z,580.00
2022-08-23T05:06:13.372Z,592.00
2022-08-23T05:07:13.457Z,612.00
2022-08-23T05:08:12.597Z,624.00
2022-08-23T05:09:15.089Z,640.00
2022-08-23T05:10:13.667Z,652.00
2022-08-23T05:11:12.664Z,668.00
2022-08-23T05:12:13.485Z,680.00
2022-08-23T05:13:12.676Z,696.00
2022-08-23T05:14:12.527Z,712.00
2022-08-23T05:15:12.518Z,724.00
2022-08-23T05:16:13.167Z,736.00
2022-08-23T05:17:12.701Z,752.00
2022-08-23T05:18:12.475Z,764.00
2022-08-23T05:19:12.500Z,780.00
2022-08-23T05:20:12.468Z,792.00
2022-08-23T05:21:12.456Z,808.00
2022-08-23T05:22:13.108Z,824.00
2022-08-23T05:23:13.189Z,836.00
2022-08-23T05:24:13.741Z,836.00
2022-08-23T05:25:12.411Z,844.00
2022-08-23T05:26:12.387Z,856.00
2022-08-23T05:27:13.723Z,860.00
2022-08-23T05:28:12.661Z,868.00
2022-08-23T05:29:12.718Z,876.00
2022-08-23T05:30:15.401Z,888.00
2022-08-23T05:31:12.327Z,900.00
2022-08-23T05:32:12.327Z,912.00
2022-08-23T05:33:12.307Z,928.00
2022-08-23T05:34:12.987Z,952.00
2022-08-23T05:35:12.307Z,980.00
2022-08-23T05:36:12.257Z,1008.00
2022-08-23T05:37:12.266Z,1036.00
2022-08-23T05:38:12.248Z,1048.00
2022-08-23T05:39:13.012Z,1060.00
2022-08-23T05:40:13.974Z,1068.00
2022-08-23T05:41:12.457Z,1072.00
2022-08-23T05:42:12.177Z,1080.00
2022-08-23T05:43:12.190Z,1088.00
2022-08-23T05:44:12.406Z,1092.00
2022-08-23T05:45:12.882Z,1100.00
2022-08-23T05:46:12.728Z,1108.00
2022-08-23T05:47:12.144Z,1112.00
2022-08-23T05:48:12.109Z,1116.00
2022-08-23T05:49:12.130Z,1128.00
2022-08-23T05:50:12.229Z,1132.00
2022-08-23T05:51:12.810Z,1136.00
2022-08-23T05:52:12.116Z,1148.00
2022-08-23T05:53:12.091Z,1152.00
2022-08-23T05:54:12.061Z,1160.00
2022-08-23T05:55:12.028Z,1168.00
2022-08-23T05:56:12.839Z,1176.00
2022-08-23T05:57:12.027Z,1184.00
2022-08-23T05:58:12.017Z,1188.00
2022-08-23T05:59:12.744Z,1196.00
2022-08-23T06:00:12.007Z,1204.00
2022-08-23T06:01:12.034Z,1216.00
2022-08-23T06:02:11.998Z,1224.00
2022-08-23T06:03:11.951Z,1232.00
2022-08-23T06:04:11.947Z,1236.00
2022-08-23T06:05:11.918Z,1244.00
2022-08-23T06:06:11.925Z,1248.00
2022-08-23T06:07:12.809Z,1256.00
2022-08-23T06:08:11.918Z,1268.00
2022-08-23T06:09:11.878Z,1276.00
2022-08-23T06:10:15.989Z,1284.00
2022-08-23T06:11:11.849Z,1292.00
2022-08-23T06:12:11.860Z,1300.00
2022-08-23T06:13:11.837Z,1308.00
2022-08-23T06:14:11.880Z,1312.00
2022-08-23T06:15:11.818Z,1316.00
2022-08-23T06:16:15.098Z,1320.00
2022-08-23T06:17:11.798Z,1328.00
2022-08-23T06:18:12.305Z,1332.00
2022-08-23T06:19:11.810Z,1336.00
2022-08-23T06:20:12.243Z,1344.00
2022-08-23T06:21:12.198Z,1348.00
2022-08-23T06:22:11.898Z,1352.00
2022-08-23T06:23:12.098Z,1360.00
2022-08-23T06:24:11.753Z,1360.00
2022-08-23T06:25:11.713Z,1364.00
2022-08-23T06:26:11.696Z,1364.00
2022-08-23T06:27:11.669Z,1364.00
2022-08-23T06:28:11.669Z,1368.00
2022-08-23T06:29:12.511Z,1376.00
2022-08-23T06:30:13.242Z,1388.00
2022-08-23T06:31:11.739Z,1396.00
2022-08-23T06:32:12.523Z,1404.00
2022-08-23T06:33:12.359Z,1408.00
2022-08-23T06:34:12.563Z,1416.00
2022-08-23T06:35:33.182Z,1420.00
2022-08-23T06:36:12.579Z,1428.00
2022-08-23T06:37:11.560Z,1432.00
2022-08-23T06:38:11.807Z,1440.00
2022-08-23T06:39:11.530Z,1448.00
2022-08-23T06:40:12.526Z,1452.00
2022-08-23T06:41:11.531Z,1460.00
2022-08-23T06:42:34.804Z,1468.00
2022-08-23T06:43:12.490Z,1472.00
2022-08-23T06:44:11.492Z,1484.00
2022-08-23T06:45:11.461Z,1476.00
2022-08-23T06:46:11.784Z,1492.00
2022-08-23T06:47:11.440Z,1496.00
2022-08-23T06:48:13.867Z,1504.00
2022-08-23T06:49:11.420Z,1508.00
2022-08-23T06:50:11.421Z,1504.00
2022-08-23T06:51:11.390Z,1504.00
2022-08-23T06:52:11.429Z,1524.00
2022-08-23T06:53:11.370Z,1536.00
2022-08-23T06:54:11.371Z,1544.00
2022-08-23T06:55:13.804Z,1556.00
2022-08-23T06:56:11.361Z,1560.00
2022-08-23T06:57:11.330Z,1572.00
2022-08-23T06:58:12.540Z,1580.00
2022-08-23T06:59:11.311Z,1592.00
2022-08-23T07:00:11.750Z,1592.00
2022-08-23T07:01:28.582Z,1596.00
2022-08-23T07:02:12.393Z,1600.00
2022-08-23T07:03:11.368Z,1596.00
2022-08-23T07:04:11.268Z,1596.00
2022-08-23T07:05:11.242Z,1576.00
2022-08-23T07:06:11.241Z,1596.00
2022-08-23T07:07:12.131Z,1600.00
2022-08-23T07:08:11.221Z,1604.00
2022-08-23T07:09:11.195Z,1612.00
2022-08-23T07:10:11.234Z,1612.00
2022-08-23T07:11:11.173Z,1616.00
2022-08-23T07:12:11.173Z,1620.00
2022-08-23T07:13:11.151Z,1624.00
2022-08-23T07:14:11.152Z,1628.00
2022-08-23T07:15:11.134Z,1628.00
2022-08-23T07:16:11.167Z,1632.00
2022-08-23T07:17:11.102Z,1632.00
2022-08-23T07:18:11.101Z,1632.00
2022-08-23T07:19:11.081Z,1632.00
2022-08-23T07:20:11.088Z,1640.00
2022-08-23T07:21:11.065Z,1648.00
2022-08-23T07:22:11.061Z,1652.00
2022-08-23T07:23:11.043Z,1660.00
2022-08-23T07:24:11.039Z,1660.00
2022-08-23T07:25:11.041Z,1656.00
2022-08-23T07:26:11.029Z,1660.00
2022-08-23T07:27:10.991Z,1656.00
2022-08-23T07:28:11.797Z,1656.00
2022-08-23T07:29:10.973Z,1652.00
2022-08-23T07:30:10.974Z,1656.00
2022-08-23T07:31:14.560Z,1656.00
2022-08-23T07:32:11.010Z,1652.00
2022-08-23T07:33:10.914Z,1656.00
2022-08-23T07:34:10.923Z,1668.00
2022-08-23T07:35:10.894Z,1664.00
2022-08-23T07:36:10.902Z,1664.00
2022-08-23T07:37:11.274Z,1668.00
2022-08-23T07:38:10.873Z,1672.00
2022-08-23T07:39:10.858Z,1676.00
2022-08-23T07:40:10.897Z,1676.00
2022-08-23T07:41:11.834Z,1676.00
2022-08-23T07:42:23.921Z,1684.00
2022-08-23T07:43:11.803Z,1680.00
2022-08-23T07:44:10.806Z,1684.00
2022-08-23T07:45:12.920Z,1684.00
2022-08-23T07:46:12.537Z,1688.00
2022-08-23T07:47:10.763Z,1692.00
2022-08-23T07:48:10.772Z,1688.00
2022-08-23T07:49:10.734Z,1704.00
2022-08-23T07:50:10.744Z,1708.00
2022-08-23T07:51:10.757Z,1712.00
2022-08-23T07:52:12.117Z,1712.00
2022-08-23T07:53:10.704Z,1716.00
2022-08-23T07:54:10.716Z,1716.00
2022-08-23T07:55:10.702Z,1724.00
2022-08-23T07:56:10.692Z,1732.00
2022-08-23T07:57:10.654Z,1732.00
2022-08-23T07:58:10.684Z,1740.00
2022-08-23T07:59:10.640Z,1748.00
2022-08-23T08:00:10.642Z,1756.00
2022-08-23T08:01:10.616Z,1764.00
2022-08-23T08:02:11.568Z,1776.00
2022-08-23T08:03:11.316Z,1800.00
2022-08-23T08:04:10.587Z,1832.00
2022-08-23T08:05:10.566Z,1876.00
2022-08-23T08:06:10.565Z,1924.00
2022-08-23T08:07:19.303Z,1960.00
2022-08-23T08:08:11.538Z,1968.00
2022-08-23T08:09:10.515Z,1968.00
2022-08-23T08:10:10.517Z,1968.00
2022-08-23T08:11:10.498Z,1960.00
2022-08-23T08:12:10.496Z,1960.00
2022-08-23T08:13:10.466Z,1968.00
2022-08-23T08:14:10.555Z,1972.00
2022-08-23T08:15:10.448Z,1988.00
2022-08-23T08:16:10.516Z,2012.00
2022-08-23T08:17:10.430Z,2020.00
2022-08-23T08:18:10.435Z,2016.00
2022-08-23T08:19:10.436Z,2012.00
2022-08-23T08:20:10.407Z,2060.00
2022-08-23T08:21:10.389Z,2148.00
2022-08-23T08:22:10.385Z,2296.00
2022-08-23T08:23:10.359Z,2344.00
2022-08-23T08:24:10.358Z,2328.00
2022-08-23T08:25:10.338Z,2336.00
2022-08-23T08:26:10.347Z,2248.00
2022-08-23T08:27:10.308Z,2160.00
2022-08-23T08:28:15.575Z,2084.00
2022-08-23T08:29:11.288Z,2048.00
2022-08-23T08:30:10.506Z,2040.00
2022-08-23T08:31:10.328Z,2016.00
2022-08-23T08:32:13.955Z,1976.00
2022-08-23T08:33:10.240Z,1956.00
2022-08-23T08:34:10.238Z,1948.00
2022-08-23T08:35:10.220Z,1924.00
2022-08-23T08:36:10.250Z,1900.00
2022-08-23T08:37:10.198Z,1884.00
2022-08-23T08:38:10.200Z,1868.00
2022-08-23T08:39:10.404Z,1864.00
2022-08-23T08:40:10.260Z,1856.00
2022-08-23T08:41:10.160Z,1872.00
2022-08-23T08:42:10.159Z,1884.00
2022-08-23T08:43:10.187Z,1880.00
2022-08-23T08:44:12.713Z,1884.00
2022-08-23T08:45:10.110Z,1888.00
2022-08-23T08:46:10.925Z,1892.00
2022-08-23T08:47:10.360Z,1892.00
2022-08-23T08:48:13.405Z,1896.00
2022-08-23T08:49:10.069Z,1916.00
2022-08-23T08:50:10.068Z,1940.00
2022-08-23T08:51:10.041Z,1980.00
2022-08-23T08:52:10.057Z,2008.00
2022-08-23T08:53:10.023Z,2040.00
2022-08-23T08:54:10.030Z,2028.00
2022-08-23T08:55:09.991Z,1824.00
2022-08-23T08:56:10.237Z,1892.00
2022-08-23T08:57:10.821Z,1920.00
2022-08-23T08:58:10.193Z,1888.00
2022-08-23T08:59:09.951Z,1888.00
2022-08-23T09:00:09.960Z,1880.00
2022-08-23T09:01:09.931Z,1892.00
2022-08-23T09:02:31.962Z,1904.00
2022-08-23T09:03:10.997Z,1928.00
2022-08-23T09:04:09.919Z,1948.00
2022-08-23T09:05:09.885Z,1968.00
2022-08-23T09:06:09.882Z,1992.00
2022-08-23T09:07:09.872Z,2016.00
2022-08-23T09:08:10.795Z,2044.00
2022-08-23T09:09:09.874Z,2056.00
2022-08-23T09:10:09.852Z,2044.00
2022-08-23T09:11:09.825Z,2016.00
2022-08-23T09:12:10.021Z,1988.00
2022-08-23T09:13:09.793Z,1956.00
2022-08-23T09:14:09.824Z,1928.00
2022-08-23T09:15:09.791Z,1912.00
2022-08-23T09:16:09.827Z,1896.00
2022-08-23T09:17:09.753Z,1888.00
2022-08-23T09:18:09.754Z,1880.00
2022-08-23T09:19:10.506Z,1872.00
2022-08-23T09:20:09.767Z,1872.00
2022-08-23T09:21:09.733Z,1868.00
2022-08-23T09:22:09.713Z,1864.00
2022-08-23T09:23:09.704Z,1856.00
2022-08-23T09:24:10.537Z,1856.00
2022-08-23T09:25:10.316Z,1856.00
2022-08-23T09:26:09.674Z,1856.00
2022-08-23T09:27:10.519Z,1856.00
2022-08-23T09:28:09.670Z,1860.00
2022-08-23T09:29:09.636Z,1864.00
2022-08-23T09:30:10.475Z,1864.00
2022-08-23T09:31:09.678Z,1868.00
2022-08-23T09:32:09.614Z,1864.00
2022-08-23T09:33:09.576Z,1860.00
2022-08-23T09:34:09.585Z,1852.00
2022-08-23T09:35:09.555Z,1856.00
2022-08-23T09:36:09.736Z,1852.00
2022-08-23T09:37:09.811Z,1848.00
2022-08-23T09:38:09.747Z,1852.00
2022-08-23T09:39:09.517Z,1848.00
2022-08-23T09:40:09.544Z,1852.00
2022-08-23T09:41:09.507Z,1848.00
2022-08-23T09:42:09.566Z,1848.00
2022-08-23T09:43:09.716Z,1848.00
2022-08-23T09:44:10.423Z,1852.00
2022-08-23T09:45:09.516Z,1856.00
2022-08-23T09:46:10.287Z,1856.00
2022-08-23T09:47:10.198Z,1860.00
2022-08-23T09:48:10.317Z,1864.00
2022-08-23T09:49:09.596Z,1864.00
2022-08-23T09:50:10.348Z,1864.00
2022-08-23T09:51:09.397Z,1868.00
2022-08-23T09:52:10.158Z,1868.00
2022-08-23T09:53:10.127Z,1864.00
2022-08-23T09:54:09.378Z,1864.00
2022-08-23T09:55:10.122Z,1868.00
2022-08-23T09:56:09.341Z,1864.00
2022-08-23T09:57:10.190Z,1872.00
2022-08-23T09:58:10.096Z,1872.00
2022-08-23T09:59:09.859Z,1880.00
2022-08-23T10:00:10.154Z,1884.00
2022-08-23T10:01:10.124Z,1884.00
2022-08-23T10:02:09.850Z,1888.00
2022-08-23T10:03:10.121Z,1892.00
2022-08-23T10:04:10.146Z,1904.00
2022-08-23T10:05:13.293Z,1908.00
2022-08-23T10:06:11.110Z,1912.00
2022-08-23T10:07:09.243Z,1920.00
2022-08-23T10:08:10.867Z,1928.00
2022-08-23T10:09:10.059Z,1936.00
2022-08-23T10:10:09.211Z,1952.00
2022-08-23T10:11:10.123Z,1952.00
2022-08-23T10:12:09.150Z,1964.00
2022-08-23T10:13:09.148Z,1976.00
2022-08-23T10:14:09.362Z,1992.00
2022-08-23T10:15:09.235Z,2008.00
2022-08-23T10:16:09.316Z,2016.00
2022-08-23T10:17:09.113Z,2024.00
2022-08-23T10:18:09.980Z,2012.00
2022-08-23T10:19:09.113Z,1996.00
2022-08-23T10:20:09.062Z,1984.00
2022-08-23T10:21:09.070Z,1988.00
2022-08-23T10:22:09.035Z,1996.00
2022-08-23T10:23:10.051Z,1992.00
2022-08-23T10:24:09.917Z,1992.00
2022-08-23T10:25:09.800Z,1972.00
2022-08-23T10:26:09.012Z,1896.00
2022-08-23T10:27:09.004Z,1908.00
2022-08-23T10:28:08.974Z,1944.00
2022-08-23T10:29:08.983Z,1948.00
2022-08-23T10:30:08.963Z,1984.00
2022-08-23T10:31:09.807Z,2000.00
2022-08-23T10:32:09.713Z,1992.00
2022-08-23T10:33:08.974Z,2012.00
2022-08-23T10:34:10.781Z,2020.00
2022-08-23T10:35:08.953Z,2028.00
2022-08-23T10:36:09.773Z,2036.00
2022-08-23T10:37:08.912Z,2044.00
2022-08-23T10:38:09.693Z,2044.00
2022-08-23T10:39:09.068Z,2052.00
2022-08-23T10:40:08.970Z,2072.00
2022-08-23T10:41:09.145Z,2112.00
2022-08-23T10:42:09.145Z,2240.00
2022-08-23T10:43:08.814Z,2292.00
2022-08-23T10:44:08.955Z,2316.00
2022-08-23T10:45:08.815Z,2304.00
2022-08-23T10:46:09.019Z,2348.00
2022-08-23T10:47:09.475Z,2340.00
2022-08-23T10:48:08.776Z,2432.00
2022-08-23T10:49:09.591Z,2520.00
2022-08-23T10:50:08.907Z,2596.00
2022-08-23T10:51:08.786Z,2616.00
2022-08-23T10:52:09.516Z,2680.00
2022-08-23T10:53:09.429Z,2720.00
2022-08-23T10:54:08.715Z,2756.00
2022-08-23T10:55:08.726Z,2728.00
2022-08-23T10:56:08.789Z,2776.00
2022-08-23T10:57:08.747Z,2772.00
2022-08-23T10:58:08.646Z,2768.00
2022-08-23T10:59:08.760Z,2796.00
2022-08-23T11:00:08.764Z,2868.00
2022-08-23T11:01:08.733Z,2892.00
2022-08-23T11:02:08.673Z,3000.00
2022-08-23T11:03:08.687Z,3028.00
2022-08-23T11:04:08.797Z,2996.00
2022-08-23T11:05:08.811Z,3036.00
2022-08-23T11:06:09.475Z,2748.00
2022-08-23T11:07:09.349Z,2880.00
2022-08-23T11:08:09.258Z,2904.00
2022-08-23T11:09:08.629Z,2808.00
2022-08-23T11:10:10.023Z,2732.00
2022-08-23T11:11:09.608Z,2772.00
2022-08-23T11:12:11.016Z,2808.00
2022-08-23T11:13:09.292Z,3232.00
2022-08-23T11:14:09.980Z,3688.00
2022-08-23T11:15:08.556Z,4044.00
2022-08-23T11:16:08.490Z,3788.00
2022-08-23T11:17:08.461Z,3768.00
2022-08-23T11:18:08.469Z,3668.00
2022-08-23T11:19:08.522Z,3516.00
2022-08-23T11:20:10.158Z,3548.00
2022-08-23T11:21:08.468Z,3432.00
2022-08-23T11:22:08.624Z,3244.00
2022-08-23T11:23:09.100Z,3132.00
2022-08-23T11:24:08.411Z,3108.00
2022-08-23T11:25:08.429Z,3164.00
2022-08-23T11:26:09.071Z,2756.00
2022-08-23T11:27:09.040Z,2956.00
2022-08-23T11:28:08.366Z,3008.00
2022-08-23T11:29:08.651Z,3132.00
2022-08-23T11:30:08.291Z,3276.00
2022-08-23T11:31:08.363Z,3352.00
2022-08-23T11:32:08.272Z,3860.00
2022-08-23T11:33:08.783Z,3884.00
2022-08-23T11:34:08.254Z,3888.00
2022-08-23T11:35:09.030Z,4212.00
2022-08-23T11:36:08.282Z,4092.00
2022-08-23T11:37:08.232Z,4016.00
2022-08-23T11:38:08.234Z,4268.00
2022-08-23T11:39:08.912Z,4540.00
2022-08-23T11:40:08.247Z,4668.00
2022-08-23T11:41:08.214Z,4168.00
2022-08-23T11:42:08.172Z,3964.00
2022-08-23T11:43:08.193Z,4088.00
2022-08-23T11:44:08.182Z,3944.00
2022-08-23T11:45:08.143Z,3448.00
2022-08-23T11:46:08.951Z,3728.00
2022-08-23T11:47:08.846Z,3520.00
2022-08-23T11:48:08.148Z,3412.00
2022-08-23T11:49:08.275Z,3244.00
2022-08-23T11:50:08.274Z,3708.00
2022-08-23T11:51:08.284Z,3732.00
2022-08-23T11:52:08.056Z,3832.00
2022-08-23T11:53:08.076Z,4020.00
2022-08-23T11:54:08.963Z,4144.00
2022-08-23T11:55:08.034Z,4144.00
2022-08-23T11:56:08.015Z,4428.00
2022-08-23T11:57:08.034Z,4424.00
2022-08-23T11:58:07.995Z,4272.00
2022-08-23T11:59:09.100Z,4136.00
2022-08-23T12:00:08.035Z,4144.00
2022-08-23T12:01:08.776Z,4264.00
2022-08-23T12:02:08.000Z,4400.00
2022-08-23T12:03:08.081Z,4376.00
2022-08-23T12:04:08.896Z,4344.00
2022-08-23T12:05:07.975Z,4300.00
2022-08-23T12:06:07.919Z,4288.00
2022-08-23T12:07:08.724Z,4272.00
2022-08-23T12:08:08.625Z,4124.00
2022-08-23T12:09:08.598Z,4016.00
2022-08-23T12:10:08.207Z,3916.00
2022-08-23T12:11:08.526Z,3868.00
2022-08-23T12:12:07.853Z,3764.00
2022-08-23T12:13:08.731Z,3284.00
2022-08-23T12:14:07.838Z,3328.00
2022-08-23T12:15:07.838Z,3856.00
2022-08-23T12:16:16.662Z,3824.00
2022-08-23T12:17:08.790Z,3660.00
2022-08-23T12:18:08.158Z,3916.00
2022-08-23T12:19:09.744Z,4124.00
2022-08-23T12:20:13.152Z,4264.00
2022-08-23T12:21:08.845Z,4260.00
2022-08-23T12:22:07.730Z,4332.00
2022-08-23T12:23:07.741Z,4500.00
2022-08-23T12:24:07.711Z,4688.00
2022-08-23T12:25:07.710Z,4852.00
2022-08-23T12:26:08.429Z,5056.00
2022-08-23T12:27:08.400Z,5092.00
2022-08-23T12:28:08.490Z,5040.00
2022-08-23T12:29:08.390Z,5216.00
2022-08-23T12:30:07.651Z,5388.00
2022-08-23T12:31:13.592Z,5408.00